Terminal Aerodrome Forecast
Issued by NWS Cleveland, OH

Home | Current Version | Previous Version | Text Only | Print | Product List | Glossary On
Versions: 1 2 3 4 5 6 7 8 9 10 11 12 13 14 15 16 17 18 19 20 21 22 23
969
FTUS41 KCLE 250158 AAA
TAFERI
TAF AMD
KERI 250158Z 2502/2524 27008KT 5SM BR OVC005
      TEMPO 2502/2504 3SM BR OVC002
     FM250400 25008KT 6SM BR OVC008
      TEMPO 2504/2506 4SM BR OVC005
     FM251000 22006KT P6SM OVC010
     FM251600 19010KT P6SM OVC040=

USA.gov is the U.S. government's official web portal to all federal, state and local government web resources and services.